createdAt,value
2023-04-16T00:00:54.046Z,959.9615
2023-04-16T00:01:56.962Z,959.9661
2023-04-16T00:02:59.446Z,959.9631
2023-04-16T00:04:01.989Z,959.9547
2023-04-16T00:05:04.415Z,959.9462
2023-04-16T00:06:07.015Z,959.9623
2023-04-16T00:07:09.514Z,959.9547
2023-04-16T00:08:12.116Z,959.9569
2023-04-16T00:09:14.685Z,959.9492
2023-04-16T00:10:17.339Z,959.9438
2023-04-16T00:11:19.839Z,959.9423
2023-04-16T00:12:22.483Z,959.9539
2023-04-16T00:13:24.993Z,959.9547
2023-04-16T00:14:27.610Z,959.9569
2023-04-16T00:15:30.155Z,959.9485
2023-04-16T00:16:32.849Z,959.9523
2023-04-16T00:17:35.336Z,959.9500
2023-04-16T00:18:38.251Z,959.9454
2023-04-16T00:19:40.496Z,959.9415
2023-04-16T00:20:43.105Z,959.9492
2023-04-16T00:21:45.653Z,959.9547
2023-04-16T00:22:48.328Z,959.9431
2023-04-16T00:23:50.823Z,959.9547
2023-04-16T00:24:53.438Z,959.9585
2023-04-16T00:25:55.990Z,959.9400
2023-04-16T00:26:58.746Z,959.9261
2023-04-16T00:28:01.227Z,959.9277
2023-04-16T00:29:04.031Z,959.9277
2023-04-16T00:30:06.413Z,959.9377
2023-04-16T00:31:09.047Z,959.9423
2023-04-16T00:32:11.569Z,959.9462
2023-04-16T00:33:14.250Z,959.9400
2023-04-16T00:34:16.741Z,959.9423
2023-04-16T00:35:19.341Z,959.9569
2023-04-16T00:36:21.901Z,959.9708
2023-04-16T00:37:25.682Z,959.9830
2023-04-16T00:38:27.064Z,959.9908
2023-04-16T00:39:29.694Z,959.9854
2023-04-16T00:40:32.239Z,959.9753
2023-04-16T00:41:34.848Z,959.9815
2023-04-16T00:42:37.404Z,959.9808
2023-04-16T00:43:40.016Z,959.9869
2023-04-16T00:44:42.586Z,959.9738
2023-04-16T00:45:45.250Z,959.9646
2023-04-16T00:46:47.800Z,959.9700
2023-04-16T00:47:50.363Z,959.9792
2023-04-16T00:48:53.184Z,959.9731
2023-04-16T00:49:55.538Z,959.9785
2023-04-16T00:50:58.070Z,959.9838
2023-04-16T00:52:00.930Z,959.9830
2023-04-16T00:53:03.243Z,959.9723
2023-04-16T00:54:05.833Z,959.9785
2023-04-16T00:55:08.393Z,959.9785
2023-04-16T00:56:11.023Z,959.9877
2023-04-16T00:57:13.623Z,959.9785
2023-04-16T00:58:16.369Z,959.9761
2023-04-16T00:59:18.958Z,959.9738
2023-04-16T01:00:21.348Z,959.9815
2023-04-16T01:01:24.004Z,959.9900
2023-04-16T01:02:26.637Z,960.0015
2023-04-16T01:03:29.391Z,960.0077
2023-04-16T01:04:31.731Z,960.0139
2023-04-16T01:05:34.209Z,960.0192
2023-04-16T01:06:36.813Z,960.0054
2023-04-16T01:07:39.391Z,960.0154
2023-04-16T01:08:42.005Z,960.0208
2023-04-16T01:09:44.535Z,960.0070
2023-04-16T01:10:47.138Z,960.0108
2023-04-16T01:11:49.698Z,960.0123
2023-04-16T01:12:52.305Z,960.0146
2023-04-16T01:13:55.097Z,960.0239
2023-04-16T01:14:57.472Z,960.0277
2023-04-16T01:16:00.101Z,960.0292
2023-04-16T01:17:02.654Z,960.0331
2023-04-16T01:18:05.492Z,960.0377
2023-04-16T01:20:10.357Z,960.0423
2023-04-16T01:21:12.966Z,960.0431
2023-04-16T01:22:15.524Z,960.0361
2023-04-16T01:23:18.129Z,960.0400
2023-04-16T01:24:20.688Z,960.0500
2023-04-16T01:25:23.551Z,960.0431
2023-04-16T01:26:25.856Z,960.0346
2023-04-16T01:27:28.459Z,960.0361
2023-04-16T01:28:31.028Z,960.0323
2023-04-16T01:29:33.669Z,960.0308
2023-04-16T01:30:36.200Z,960.0215
2023-04-16T01:31:38.836Z,960.0239
2023-04-16T01:32:41.399Z,960.0331
2023-04-16T01:33:43.967Z,960.0392
2023-04-16T01:34:46.524Z,960.0346
2023-04-16T01:35:49.152Z,960.0431
2023-04-16T01:36:51.688Z,960.0538
2023-04-16T01:37:54.684Z,960.0600
2023-04-16T01:38:56.867Z,960.0715
2023-04-16T01:39:59.473Z,960.0808
2023-04-16T01:41:02.039Z,960.0954
2023-04-16T01:42:04.786Z,960.0862
2023-04-16T01:43:07.195Z,960.1008
2023-04-16T01:44:09.802Z,960.1046
2023-04-16T01:45:12.364Z,960.1130
2023-04-16T01:46:15.004Z,960.1331
2023-04-16T01:47:17.532Z,960.1377
2023-04-16T01:48:20.137Z,960.1392
2023-04-16T01:49:22.697Z,960.1447
2023-04-16T01:50:25.469Z,960.1531
2023-04-16T01:51:27.872Z,960.1539
2023-04-16T01:52:30.497Z,960.1523
2023-04-16T01:53:33.844Z,960.1492
2023-04-16T01:54:35.846Z,960.1554
2023-04-16T01:55:38.201Z,960.1638
2023-04-16T01:56:40.807Z,960.1608
2023-04-16T01:57:43.529Z,960.1669
2023-04-16T01:58:45.980Z,960.1677
2023-04-16T01:59:48.538Z,960.1785
2023-04-16T02:00:51.163Z,960.1808
2023-04-16T02:01:53.981Z,960.1900
2023-04-16T02:02:56.424Z,960.2031
2023-04-16T02:03:58.937Z,960.2177
2023-04-16T02:05:01.476Z,960.2269
2023-04-16T02:06:04.042Z,960.2408
2023-04-16T02:07:06.788Z,960.2377
2023-04-16T02:08:09.214Z,960.2462
2023-04-16T02:09:11.912Z,960.2538
2023-04-16T02:10:14.658Z,960.2538
2023-04-16T02:11:16.979Z,960.2615
2023-04-16T02:12:19.542Z,960.2739
2023-04-16T02:13:22.385Z,960.2739
2023-04-16T02:14:24.717Z,960.2639
2023-04-16T02:15:27.325Z,960.2554
2023-04-16T02:16:29.908Z,960.2654
2023-04-16T02:17:32.587Z,960.2654
2023-04-16T02:18:35.043Z,960.2639
2023-04-16T02:19:37.649Z,960.2792
2023-04-16T02:20:40.215Z,960.2877
2023-04-16T02:21:42.859Z,960.2846
2023-04-16T02:22:45.383Z,960.2946
2023-04-16T02:23:47.991Z,960.2977
2023-04-16T02:24:50.542Z,960.2985
2023-04-16T02:25:53.158Z,960.3008
2023-04-16T02:26:55.712Z,960.3000
2023-04-16T02:27:58.321Z,960.2992
2023-04-16T02:29:01.144Z,960.3030
2023-04-16T02:30:03.496Z,960.3046
2023-04-16T02:31:06.044Z,960.3000
2023-04-16T02:32:08.964Z,960.3092
2023-04-16T02:33:11.210Z,960.3015
2023-04-16T02:34:13.818Z,960.3023
2023-04-16T02:35:16.382Z,960.3069
2023-04-16T02:36:19.341Z,960.3092
2023-04-16T02:37:21.549Z,960.3092
2023-04-16T02:38:24.202Z,960.3154
2023-04-16T02:39:26.734Z,960.3200
2023-04-16T02:40:29.314Z,960.3269
2023-04-16T02:41:31.895Z,960.3377
2023-04-16T02:42:34.477Z,960.3423
2023-04-16T02:43:37.044Z,960.3531
2023-04-16T02:44:39.659Z,960.3600
2023-04-16T02:45:42.250Z,960.3461
2023-04-16T02:46:44.812Z,960.3454
2023-04-16T02:47:47.410Z,960.3416
2023-04-16T02:48:49.973Z,960.3500
2023-04-16T02:49:52.524Z,960.3477
2023-04-16T02:50:55.129Z,960.3439
2023-04-16T02:51:57.689Z,960.3385
2023-04-16T02:53:00.305Z,960.3423
2023-04-16T02:54:02.860Z,960.3354
2023-04-16T02:55:05.766Z,960.3438
2023-04-16T02:56:08.065Z,960.3538
2023-04-16T02:57:10.633Z,960.3531
2023-04-16T02:58:13.210Z,960.3546
2023-04-16T02:59:15.805Z,960.3408
2023-04-16T03:00:18.352Z,960.3392
2023-04-16T03:01:21.000Z,960.3492
2023-04-16T03:02:23.601Z,960.3423
2023-04-16T03:03:26.284Z,960.3392
2023-04-16T03:04:49.675Z,960.3362
2023-04-16T03:05:31.264Z,960.3367
2023-04-16T03:06:33.907Z,960.3347
2023-04-16T03:07:36.438Z,960.3177
2023-04-16T03:08:39.053Z,960.3185
2023-04-16T03:09:41.695Z,960.3231
2023-04-16T03:10:44.202Z,960.3215
2023-04-16T03:11:46.765Z,960.3177
2023-04-16T03:12:49.372Z,960.3177
2023-04-16T03:13:51.930Z,960.3069
2023-04-16T03:14:54.539Z,960.3046
2023-04-16T03:15:57.111Z,960.3077
2023-04-16T03:16:59.952Z,960.3200
2023-04-16T03:18:02.355Z,960.3192
2023-04-16T03:19:04.881Z,960.3223
2023-04-16T03:20:07.435Z,960.3231
2023-04-16T03:21:10.035Z,960.3292
2023-04-16T03:22:12.596Z,960.3392
2023-04-16T03:23:15.194Z,960.3370
2023-04-16T03:24:17.755Z,960.3385
2023-04-16T03:25:20.364Z,960.3423
2023-04-16T03:26:22.915Z,960.3508
2023-04-16T03:27:25.525Z,960.3538
2023-04-16T03:28:28.092Z,960.3577
2023-04-16T03:29:30.691Z,960.3608
2023-04-16T03:30:33.264Z,960.3738
2023-04-16T03:31:35.901Z,960.3692
2023-04-16T03:32:38.476Z,960.3900
2023-04-16T03:33:41.025Z,960.3908
2023-04-16T03:34:43.586Z,960.3908
2023-04-16T03:35:46.203Z,960.4061
2023-04-16T03:36:48.757Z,960.4100
2023-04-16T03:37:51.358Z,960.4185
2023-04-16T03:38:53.914Z,960.4246
2023-04-16T03:39:56.524Z,960.4346
2023-04-16T03:40:59.079Z,960.4431
2023-04-16T03:42:01.687Z,960.4408
2023-04-16T03:43:04.234Z,960.4408
2023-04-16T03:44:06.841Z,960.4370
2023-04-16T03:45:09.502Z,960.4485
2023-04-16T03:46:12.040Z,960.4515
2023-04-16T03:47:14.573Z,960.4592
2023-04-16T03:48:17.195Z,960.4715
2023-04-16T03:49:19.738Z,960.4731
2023-04-16T03:50:22.335Z,960.4792
2023-04-16T03:51:24.889Z,960.4708
2023-04-16T03:52:27.499Z,960.4815
2023-04-16T03:53:30.054Z,960.4815
2023-04-16T03:54:32.672Z,960.4846
2023-04-16T03:55:35.216Z,960.4854
2023-04-16T03:56:37.799Z,960.4900
2023-04-16T03:57:40.412Z,960.4908
2023-04-16T03:58:42.987Z,960.4846
2023-04-16T03:59:45.569Z,960.4930
2023-04-16T04:00:48.280Z,960.4830
2023-04-16T04:01:50.860Z,960.4908
2023-04-16T04:02:53.437Z,960.5008
2023-04-16T04:03:56.126Z,960.5023
2023-04-16T04:04:58.667Z,960.4938
2023-04-16T04:06:01.051Z,960.4985
2023-04-16T04:07:03.676Z,960.4885
2023-04-16T04:08:06.394Z,960.4854
2023-04-16T04:09:09.037Z,960.4777
2023-04-16T04:10:11.687Z,960.4808
2023-04-16T04:11:13.945Z,960.4830
2023-04-16T04:12:16.553Z,960.4777
2023-04-16T04:13:19.102Z,960.4738
2023-04-16T04:14:21.718Z,960.4577
2023-04-16T04:15:24.259Z,960.4669
2023-04-16T04:16:26.908Z,960.4723
2023-04-16T04:17:29.449Z,960.4692
2023-04-16T04:18:32.038Z,960.4761
2023-04-16T04:19:34.609Z,960.4854
2023-04-16T04:20:37.204Z,960.4846
2023-04-16T04:21:39.751Z,960.4854
2023-04-16T04:22:42.354Z,960.4869
2023-04-16T04:23:44.920Z,960.4823
2023-04-16T04:24:47.522Z,960.4854
2023-04-16T04:25:50.206Z,960.4885
2023-04-16T04:26:52.678Z,960.4830
2023-04-16T04:27:55.237Z,960.4777
2023-04-16T04:28:58.091Z,960.4815
2023-04-16T04:30:00.422Z,960.4830
2023-04-16T04:31:03.022Z,960.4954
2023-04-16T04:32:05.613Z,960.5108
2023-04-16T04:33:08.570Z,960.5108
2023-04-16T04:34:10.797Z,960.5247
2023-04-16T04:35:13.411Z,960.5431
2023-04-16T04:36:15.953Z,960.5600
2023-04-16T04:37:18.569Z,960.5662
2023-04-16T04:38:21.126Z,960.5762
2023-04-16T04:39:23.732Z,960.5923
2023-04-16T04:40:26.295Z,960.6023
2023-04-16T04:41:28.919Z,960.6115
2023-04-16T04:42:31.459Z,960.6146
2023-04-16T04:43:34.057Z,960.6200
2023-04-16T04:44:36.622Z,960.6323
2023-04-16T04:45:39.388Z,960.6423
2023-04-16T04:46:41.773Z,960.6561
2023-04-16T04:47:44.398Z,960.6746
2023-04-16T04:48:46.961Z,960.6823
2023-04-16T04:49:49.544Z,960.6870
2023-04-16T04:50:52.102Z,960.6985
2023-04-16T04:51:54.713Z,960.7115
2023-04-16T04:52:57.444Z,960.7161
2023-04-16T04:53:59.870Z,960.7169
2023-04-16T04:55:02.448Z,960.7069
2023-04-16T04:56:11.792Z,960.7146
2023-04-16T04:57:08.590Z,960.7308
2023-04-16T04:58:10.196Z,960.7269
2023-04-16T04:59:12.759Z,960.7308
2023-04-16T05:00:15.365Z,960.7446
2023-04-16T05:01:17.947Z,960.7585
2023-04-16T05:02:20.807Z,960.7739
2023-04-16T05:03:23.180Z,960.7754
2023-04-16T05:04:25.705Z,960.7892
2023-04-16T05:05:28.285Z,960.7869
2023-04-16T05:06:30.911Z,960.7823
2023-04-16T05:07:33.418Z,960.7892
2023-04-16T05:08:36.253Z,960.7892
2023-04-16T05:09:38.594Z,960.7792
2023-04-16T05:10:41.195Z,960.7762
2023-04-16T05:11:43.754Z,960.7739
2023-04-16T05:12:48.243Z,960.7861
2023-04-16T05:13:48.917Z,960.7869
2023-04-16T05:14:51.531Z,960.7985
2023-04-16T05:15:54.317Z,960.8062
2023-04-16T05:16:56.785Z,960.8108
2023-04-16T05:17:59.291Z,960.8239
2023-04-16T05:19:01.872Z,960.8438
2023-04-16T05:20:04.399Z,960.8523
2023-04-16T05:21:07.018Z,960.8500
2023-04-16T05:22:09.573Z,960.8561
2023-04-16T05:23:12.446Z,960.8654
2023-04-16T05:24:15.147Z,960.8685
2023-04-16T05:25:17.359Z,960.8677
2023-04-16T05:26:20.411Z,960.8723
2023-04-16T05:27:22.513Z,960.8669
2023-04-16T05:28:25.069Z,960.8770
2023-04-16T05:29:27.695Z,960.8730
2023-04-16T05:30:30.247Z,960.8862
2023-04-16T05:31:32.840Z,960.8923
2023-04-16T05:32:35.811Z,960.9046
2023-04-16T05:33:38.013Z,960.9115
2023-04-16T05:34:40.559Z,960.9131
2023-04-16T05:35:43.189Z,960.9269
2023-04-16T05:36:45.724Z,960.9269
2023-04-16T05:37:48.337Z,960.9385
2023-04-16T05:38:50.885Z,960.9462
2023-04-16T05:39:53.488Z,960.9577
2023-04-16T05:40:56.057Z,960.9785
2023-04-16T05:41:58.666Z,960.9808
2023-04-16T05:43:01.226Z,960.9730
2023-04-16T05:44:03.834Z,960.9692
2023-04-16T05:45:06.399Z,960.9677
2023-04-16T05:46:09.072Z,960.9715
2023-04-16T05:47:11.560Z,960.9846
2023-04-16T05:48:14.158Z,961.0015
2023-04-16T05:49:16.710Z,961.0146
2023-04-16T05:50:19.330Z,961.0139
2023-04-16T05:51:21.876Z,961.0285
2023-04-16T05:52:24.477Z,961.0262
2023-04-16T05:53:28.260Z,961.0215
2023-04-16T05:54:29.656Z,961.0308
2023-04-16T05:55:32.221Z,961.0523
2023-04-16T05:56:34.813Z,961.0662
2023-04-16T05:57:37.376Z,961.0677
2023-04-16T05:58:39.988Z,961.0869
2023-04-16T05:59:42.545Z,961.1146
2023-04-16T06:00:45.151Z,961.1200
2023-04-16T06:01:47.778Z,961.1370
2023-04-16T06:02:50.456Z,961.1462
2023-04-16T06:03:53.015Z,961.1447
2023-04-16T06:04:55.489Z,961.1230
2023-04-16T06:05:58.177Z,961.1315
2023-04-16T06:07:00.645Z,961.1531
2023-04-16T06:08:03.207Z,961.1815
2023-04-16T06:09:05.816Z,961.2085
2023-04-16T06:10:08.377Z,961.1970
2023-04-16T06:11:10.983Z,961.1830
2023-04-16T06:12:13.549Z,961.1870
2023-04-16T06:13:16.159Z,961.1985
2023-04-16T06:14:18.703Z,961.2108
2023-04-16T06:15:21.318Z,961.2277
2023-04-16T06:16:23.923Z,961.2415
2023-04-16T06:17:26.601Z,961.2531
2023-04-16T06:18:29.039Z,961.2608
2023-04-16T06:19:31.646Z,961.2623
2023-04-16T06:20:34.217Z,961.2631
2023-04-16T06:21:36.817Z,961.2715
2023-04-16T06:22:39.381Z,961.2823
2023-04-16T06:23:42.003Z,961.2885
2023-04-16T06:24:44.541Z,961.2900
2023-04-16T06:25:47.321Z,961.2861
2023-04-16T06:26:49.722Z,961.2785
2023-04-16T06:27:52.323Z,961.2885
2023-04-16T06:28:54.887Z,961.3015
2023-04-16T06:29:57.506Z,961.3123
2023-04-16T06:31:00.117Z,961.3277
2023-04-16T06:32:02.657Z,961.3369
2023-04-16T06:33:05.507Z,961.3461
2023-04-16T06:34:07.858Z,961.3446
2023-04-16T06:35:10.394Z,961.3553
2023-04-16T06:36:13.105Z,961.3669
2023-04-16T06:37:15.553Z,961.3723
2023-04-16T06:38:18.172Z,961.3877
2023-04-16T06:39:20.723Z,961.4008
2023-04-16T06:40:23.350Z,961.4031
2023-04-16T06:41:25.901Z,961.4061
2023-04-16T06:42:28.516Z,961.4123
2023-04-16T06:43:31.106Z,961.4115
2023-04-16T06:44:33.689Z,961.4046
2023-04-16T06:45:36.241Z,961.4046
2023-04-16T06:46:38.907Z,961.4069
2023-04-16T06:47:41.604Z,961.4031
2023-04-16T06:48:44.016Z,961.4130
2023-04-16T06:49:46.575Z,961.4230
2023-04-16T06:50:49.194Z,961.4354
2023-04-16T06:51:51.888Z,961.4454
2023-04-16T06:52:54.357Z,961.4600
2023-04-16T06:53:56.917Z,961.4908
2023-04-16T06:54:59.520Z,961.4985
2023-04-16T06:56:02.283Z,961.5092
2023-04-16T06:57:04.690Z,961.5077
2023-04-16T06:58:07.247Z,961.5131
2023-04-16T06:59:10.069Z,961.5139
2023-04-16T07:00:12.450Z,961.5100
2023-04-16T07:01:15.028Z,961.5192
2023-04-16T07:02:17.697Z,961.5208
2023-04-16T07:03:20.286Z,961.5146
2023-04-16T07:04:22.804Z,961.5062
2023-04-16T07:05:25.351Z,961.5146
2023-04-16T07:06:27.948Z,961.5231
2023-04-16T07:07:30.526Z,961.5208
2023-04-16T07:08:33.111Z,961.5223
2023-04-16T07:09:35.693Z,961.5215
2023-04-16T07:10:38.287Z,961.5361
2023-04-16T07:11:40.839Z,961.5408
2023-04-16T07:12:43.450Z,961.5492
2023-04-16T07:13:46.006Z,961.5554
2023-04-16T07:14:48.608Z,961.5569
2023-04-16T07:15:51.172Z,961.5662
2023-04-16T07:16:53.895Z,961.5685
2023-04-16T07:17:56.418Z,961.5585
2023-04-16T07:18:58.944Z,961.5492
2023-04-16T07:20:01.531Z,961.5608
2023-04-16T07:21:04.106Z,961.5577
2023-04-16T07:22:06.668Z,961.5630
2023-04-16T07:23:09.294Z,961.5685
2023-04-16T07:24:11.832Z,961.5677
2023-04-16T07:25:14.453Z,961.5839
2023-04-16T07:26:17.028Z,961.5916
2023-04-16T07:27:19.623Z,961.5961
2023-04-16T07:28:22.181Z,961.5984
2023-04-16T07:29:24.791Z,961.5969
2023-04-16T07:30:27.356Z,961.5877
2023-04-16T07:31:29.985Z,961.5908
2023-04-16T07:32:32.889Z,961.5923
2023-04-16T07:33:35.122Z,961.6085
2023-04-16T07:34:37.685Z,961.6238
2023-04-16T07:35:40.550Z,961.6238
2023-04-16T07:36:42.861Z,961.6146
2023-04-16T07:37:45.463Z,961.6169
2023-04-16T07:38:48.016Z,961.6169
2023-04-16T07:39:50.628Z,961.6277
2023-04-16T07:40:53.184Z,961.6392
2023-04-16T07:41:55.810Z,961.6523
2023-04-16T07:42:58.354Z,961.6615
2023-04-16T07:44:00.964Z,961.6785
2023-04-16T07:45:03.524Z,961.6823
2023-04-16T07:46:06.225Z,961.6862
2023-04-16T07:47:08.690Z,961.6870
2023-04-16T07:48:11.307Z,961.6938
2023-04-16T07:49:13.868Z,961.6938
2023-04-16T07:50:16.460Z,961.7015
2023-04-16T07:51:19.010Z,961.7123
2023-04-16T07:52:21.621Z,961.7238
2023-04-16T07:53:24.164Z,961.7415
2023-04-16T07:54:28.862Z,961.7546
2023-04-16T07:55:29.334Z,961.7692
2023-04-16T07:56:31.931Z,961.7869
2023-04-16T07:57:34.487Z,961.7969
2023-04-16T07:58:37.150Z,961.7992
2023-04-16T07:59:39.791Z,961.8108
2023-04-16T08:00:42.483Z,961.8277
2023-04-16T08:01:44.809Z,961.8339
2023-04-16T08:02:47.510Z,961.8469
2023-04-16T08:03:50.136Z,961.8538
2023-04-16T08:04:52.731Z,961.8646
2023-04-16T08:05:55.135Z,961.8808
2023-04-16T08:06:57.736Z,961.8823
2023-04-16T08:08:00.295Z,961.8892
2023-04-16T08:09:02.901Z,961.8985
2023-04-16T08:10:05.470Z,961.9115
2023-04-16T08:11:08.058Z,961.9177
2023-04-16T08:12:10.623Z,961.9261
2023-04-16T08:13:13.218Z,961.9392
2023-04-16T08:14:15.777Z,961.9477
2023-04-16T08:15:18.381Z,961.9477
2023-04-16T08:16:20.966Z,961.9569
2023-04-16T08:17:23.693Z,961.9746
2023-04-16T08:18:26.282Z,961.9908
2023-04-16T08:19:28.709Z,961.9908
2023-04-16T08:20:31.286Z,962.0038
2023-04-16T08:21:33.875Z,962.0185
2023-04-16T08:22:36.437Z,962.0270
2023-04-16T08:23:39.033Z,962.0215
2023-04-16T08:24:41.600Z,962.0523
2023-04-16T08:25:44.187Z,962.0731
2023-04-16T08:26:46.761Z,962.0792
2023-04-16T08:27:49.361Z,962.0885
2023-04-16T08:28:51.915Z,962.0992
2023-04-16T08:29:54.532Z,962.1000
2023-04-16T08:30:57.140Z,962.0900
2023-04-16T08:31:59.767Z,962.0847
2023-04-16T08:33:02.275Z,962.0808
2023-04-16T08:34:04.868Z,962.0847
2023-04-16T08:35:07.420Z,962.0877
2023-04-16T08:36:10.020Z,962.0916
2023-04-16T08:37:12.594Z,962.1077
2023-04-16T08:38:15.183Z,962.1262
2023-04-16T08:39:17.813Z,962.1262
2023-04-16T08:40:20.426Z,962.1285
2023-04-16T08:41:22.974Z,962.1400
2023-04-16T08:42:25.585Z,962.1569
2023-04-16T08:43:28.138Z,962.1708
2023-04-16T08:44:30.751Z,962.1723
2023-04-16T08:45:33.314Z,962.1761
2023-04-16T08:46:35.913Z,962.1808
2023-04-16T08:47:38.504Z,962.1838
2023-04-16T08:48:41.066Z,962.1846
2023-04-16T08:49:43.617Z,962.1938
2023-04-16T08:50:46.235Z,962.1977
2023-04-16T08:51:48.785Z,962.2069
2023-04-16T08:52:51.395Z,962.2115
2023-04-16T08:53:53.955Z,962.2177
2023-04-16T08:54:57.247Z,962.2292
2023-04-16T08:55:59.113Z,962.2238
2023-04-16T08:57:01.719Z,962.2330
2023-04-16T08:58:04.273Z,962.2438
2023-04-16T08:59:07.120Z,962.2423
2023-04-16T09:00:09.442Z,962.2446
2023-04-16T09:01:12.044Z,962.2592
2023-04-16T09:02:14.675Z,962.2646
2023-04-16T09:03:17.887Z,962.2646
2023-04-16T09:04:19.827Z,962.2723
2023-04-16T09:05:22.388Z,962.2754
2023-04-16T09:06:24.915Z,962.2762
2023-04-16T09:07:27.536Z,962.2792
2023-04-16T09:08:30.070Z,962.2823
2023-04-16T09:09:34.542Z,962.3162
2023-04-16T09:10:35.237Z,962.3300
2023-04-16T09:11:38.124Z,962.3439
2023-04-16T09:12:40.388Z,962.3439
2023-04-16T09:13:42.990Z,962.3331
2023-04-16T09:14:45.553Z,962.3277
2023-04-16T09:15:48.159Z,962.3277
2023-04-16T09:16:50.731Z,962.3431
2023-04-16T09:17:53.365Z,962.3484
2023-04-16T09:18:55.904Z,962.3554
2023-04-16T09:19:58.484Z,962.3823
2023-04-16T09:21:01.046Z,962.3792
2023-04-16T09:22:03.659Z,962.3823
2023-04-16T09:23:06.201Z,962.3954
2023-04-16T09:24:08.856Z,962.4016
2023-04-16T09:25:11.381Z,962.4185
2023-04-16T09:26:13.981Z,962.4285
2023-04-16T09:27:16.533Z,962.4315
2023-04-16T09:28:19.140Z,962.4230
2023-04-16T09:29:21.686Z,962.4285
2023-04-16T09:30:24.345Z,962.4323
2023-04-16T09:31:26.877Z,962.4500
2023-04-16T09:32:29.519Z,962.4570
2023-04-16T09:33:34.470Z,962.4654
2023-04-16T09:34:34.638Z,962.4777
2023-04-16T09:35:37.189Z,962.4769
2023-04-16T09:36:39.801Z,962.4723
2023-04-16T09:37:42.351Z,962.4838
2023-04-16T09:38:44.961Z,962.4962
2023-04-16T09:39:47.521Z,962.4969
2023-04-16T09:40:50.125Z,962.5077
2023-04-16T09:41:52.687Z,962.5070
2023-04-16T09:42:55.286Z,962.5139
2023-04-16T09:43:57.845Z,962.5223
2023-04-16T09:45:02.645Z,962.5269
2023-04-16T09:46:07.448Z,962.5392
2023-04-16T09:47:06.651Z,962.5323
2023-04-16T09:48:08.178Z,962.5277
2023-04-16T09:49:11.050Z,962.5331
2023-04-16T09:50:14.020Z,962.5377
2023-04-16T09:51:15.948Z,962.5485
2023-04-16T09:52:18.504Z,962.5615
2023-04-16T09:53:21.111Z,962.5685
2023-04-16T09:54:23.670Z,962.5453
2023-04-16T09:55:26.275Z,962.5523
2023-04-16T09:56:28.831Z,962.5692
2023-04-16T09:57:31.445Z,962.5754
2023-04-16T09:58:33.998Z,962.5800
2023-04-16T09:59:36.627Z,962.5977
2023-04-16T10:00:43.167Z,962.6192
2023-04-16T10:01:41.843Z,962.6308
2023-04-16T10:02:44.369Z,962.6400
2023-04-16T10:03:47.155Z,962.6485
2023-04-16T10:04:49.688Z,962.6539
2023-04-16T10:05:52.118Z,962.6415
2023-04-16T10:06:54.666Z,962.6508
2023-04-16T10:07:57.279Z,962.6523
2023-04-16T10:08:59.845Z,962.6462
2023-04-16T10:10:02.464Z,962.6470
2023-04-16T10:11:04.999Z,962.6554
2023-04-16T10:12:07.620Z,962.6669
2023-04-16T10:13:10.185Z,962.6677
2023-04-16T10:14:12.782Z,962.6700
2023-04-16T10:15:15.340Z,962.6661
2023-04-16T10:16:17.989Z,962.6692
2023-04-16T10:17:20.490Z,962.6792
2023-04-16T10:18:23.094Z,962.6900
2023-04-16T10:19:25.660Z,962.6962
2023-04-16T10:20:28.267Z,962.7146
2023-04-16T10:21:30.826Z,962.7154
2023-04-16T10:22:33.425Z,962.7169
2023-04-16T10:23:35.977Z,962.7184
2023-04-16T10:24:38.633Z,962.7177
2023-04-16T10:25:41.149Z,962.7177
2023-04-16T10:26:43.768Z,962.7231
2023-04-16T10:27:46.299Z,962.7123
2023-04-16T10:28:48.908Z,962.7008
2023-04-16T10:29:51.477Z,962.7000
2023-04-16T10:30:54.133Z,962.7008
2023-04-16T10:31:56.616Z,962.7023
2023-04-16T10:33:00.543Z,962.7039
2023-04-16T10:34:01.779Z,962.6985
2023-04-16T10:35:04.392Z,962.6970
2023-04-16T10:36:07.853Z,962.7039
2023-04-16T10:37:09.557Z,962.7023
2023-04-16T10:38:12.103Z,962.6923
2023-04-16T10:39:16.765Z,962.6830
2023-04-16T10:40:17.317Z,962.6823
2023-04-16T10:41:19.881Z,962.6808
2023-04-16T10:42:22.429Z,962.6792
2023-04-16T10:43:25.035Z,962.6823
2023-04-16T10:44:27.578Z,962.6761
2023-04-16T10:45:30.191Z,962.6715
2023-04-16T10:46:32.786Z,962.6730
2023-04-16T10:47:35.384Z,962.6808
2023-04-16T10:48:48.767Z,962.6815
2023-04-16T10:49:41.505Z,962.6715
2023-04-16T10:50:43.076Z,962.6754
2023-04-16T10:51:45.677Z,962.6785
2023-04-16T10:52:48.225Z,962.6715
2023-04-16T10:53:50.826Z,962.6608
2023-04-16T10:54:53.391Z,962.6669
2023-04-16T10:55:56.000Z,962.6600
2023-04-16T10:56:58.559Z,962.6554
2023-04-16T10:58:01.146Z,962.6447
2023-04-16T10:59:03.710Z,962.6423
2023-04-16T11:00:06.316Z,962.6484
2023-04-16T11:01:08.876Z,962.6485
2023-04-16T11:02:11.555Z,962.6523
2023-04-16T11:03:14.087Z,962.6554
2023-04-16T11:04:16.715Z,962.6508
2023-04-16T11:05:19.211Z,962.6592
2023-04-16T11:06:21.810Z,962.6685
2023-04-16T11:07:24.364Z,962.6677
2023-04-16T11:08:26.979Z,962.6723
2023-04-16T11:09:29.528Z,962.6692
2023-04-16T11:10:32.143Z,962.6715
2023-04-16T11:11:34.703Z,962.6646
2023-04-16T11:12:37.504Z,962.6531
2023-04-16T11:13:40.073Z,962.6523
2023-04-16T11:14:42.465Z,962.6569
2023-04-16T11:15:45.087Z,962.6554
2023-04-16T11:16:47.633Z,962.6677
2023-04-16T11:17:50.236Z,962.6700
2023-04-16T11:18:53.946Z,962.6661
2023-04-16T11:19:55.362Z,962.6708
2023-04-16T11:20:57.959Z,962.6730
2023-04-16T11:22:00.538Z,962.6800
2023-04-16T11:23:03.126Z,962.6885
2023-04-16T11:24:05.710Z,962.6915
2023-04-16T11:25:08.289Z,962.6900
2023-04-16T11:26:10.881Z,962.6892
2023-04-16T11:27:13.431Z,962.6892
2023-04-16T11:28:16.047Z,962.6931
2023-04-16T11:29:18.606Z,962.7015
2023-04-16T11:30:21.216Z,962.7108
2023-04-16T11:31:23.806Z,962.7146
2023-04-16T11:32:26.399Z,962.7254
2023-04-16T11:33:28.935Z,962.7408
2023-04-16T11:34:31.541Z,962.7531
2023-04-16T11:35:34.111Z,962.7585
2023-04-16T11:36:36.733Z,962.7639
2023-04-16T11:37:39.268Z,962.7631
2023-04-16T11:38:41.863Z,962.7592
2023-04-16T11:39:44.430Z,962.7570
2023-04-16T11:40:47.036Z,962.7631
2023-04-16T11:41:49.600Z,962.7654
2023-04-16T11:42:52.200Z,962.7608
2023-04-16T11:43:54.797Z,962.7715
2023-04-16T11:44:57.376Z,962.7754
2023-04-16T11:45:59.926Z,962.7861
2023-04-16T11:47:02.591Z,962.7823
2023-04-16T11:48:05.104Z,962.7769
2023-04-16T11:49:07.827Z,962.7800
2023-04-16T11:50:10.265Z,962.7792
2023-04-16T11:51:12.853Z,962.7831
2023-04-16T11:52:15.404Z,962.7892
2023-04-16T11:53:18.031Z,962.7877
2023-04-16T11:54:20.583Z,962.7885
2023-04-16T11:55:23.177Z,962.7915
2023-04-16T11:56:25.743Z,962.7861
2023-04-16T11:57:28.358Z,962.7823
2023-04-16T11:58:30.897Z,962.7877
2023-04-16T11:59:33.508Z,962.8054
2023-04-16T12:00:36.070Z,962.8130
2023-04-16T12:01:38.667Z,962.8185
2023-04-16T12:02:41.362Z,962.8177
2023-04-16T12:03:44.253Z,962.8185
2023-04-16T12:04:46.522Z,962.8285
2023-04-16T12:05:48.992Z,962.8192
2023-04-16T12:06:51.557Z,962.8100
2023-04-16T12:07:54.152Z,962.8208
2023-04-16T12:08:56.710Z,962.8292
2023-04-16T12:09:59.488Z,962.8347
2023-04-16T12:11:01.870Z,962.8362
2023-04-16T12:12:04.480Z,962.8369
2023-04-16T12:13:07.022Z,962.8331
2023-04-16T12:14:09.626Z,962.8500
2023-04-16T12:15:12.182Z,962.8484
2023-04-16T12:16:14.794Z,962.8500